createdAt,value
2022-08-17T00:02:25.401Z,95366.97
2022-08-17T00:07:28.463Z,95365.66
2022-08-17T00:12:42.885Z,95375.53
2022-08-17T00:17:48.314Z,95365.03
2022-08-17T00:22:50.540Z,95369.53
2022-08-17T00:27:52.296Z,95376.34
2022-08-17T00:33:14.104Z,95371.47
2022-08-17T00:38:19.221Z,95371.66
2022-08-17T00:43:38.910Z,95370.34
2022-08-17T00:48:42.320Z,95365.72
2022-08-17T00:53:49.900Z,95364.44
2022-08-17T00:58:54.455Z,95362.63
2022-08-17T01:03:57.436Z,95354.47
2022-08-17T01:09:03.589Z,95358.25
2022-08-17T01:14:05.268Z,95358.16
2022-08-17T01:19:16.243Z,95347.22
2022-08-17T01:24:18.659Z,95362.66
2022-08-17T01:29:23.036Z,95352.19
2022-08-17T01:34:25.046Z,95354.47
2022-08-17T01:39:56.062Z,95366.31
2022-08-17T01:45:02.732Z,95364.25
2022-08-17T01:50:16.035Z,95363.69
2022-08-17T01:55:27.237Z,95364.38
2022-08-17T02:00:47.798Z,95361.78
2022-08-17T02:05:53.352Z,95344.97
2022-08-17T02:10:55.622Z,95347.22
2022-08-17T02:15:59.648Z,95348.66
2022-08-17T02:21:02.570Z,95345.03
2022-08-17T02:26:05.189Z,95346.50
2022-08-17T02:31:11.173Z,95334.50
2022-08-17T02:36:13.921Z,95336.75
2022-08-17T02:41:15.789Z,95333.13
2022-08-17T02:46:17.442Z,95323.69
2022-08-17T02:51:19.135Z,95321.59
2022-08-17T02:56:20.853Z,95321.03
2022-08-17T03:01:22.535Z,95326.06
2022-08-17T03:06:24.229Z,95317.63
2022-08-17T03:11:25.811Z,95322.34
2022-08-17T03:16:27.614Z,95320.53
2022-08-17T03:21:29.226Z,95311.31
2022-08-17T03:26:32.041Z,95309.47
2022-08-17T03:31:33.655Z,95312.47
2022-08-17T03:36:38.858Z,95318.72
2022-08-17T03:41:40.513Z,95310.84
2022-08-17T03:47:01.029Z,95318.38
2022-08-17T03:52:22.079Z,95313.97
2022-08-17T03:57:25.109Z,95310.63
2022-08-17T04:02:32.560Z,95311.56
2022-08-17T04:07:34.261Z,95320.13
2022-08-17T04:12:49.694Z,95321.09
2022-08-17T04:17:52.543Z,95324.84
2022-08-17T04:23:09.965Z,95336.94
2022-08-17T04:28:15.779Z,95333.09
2022-08-17T04:33:21.907Z,95339.91
2022-08-17T04:38:27.377Z,95351.06
2022-08-17T04:43:31.050Z,95353.06
2022-08-17T04:48:37.568Z,95351.06
2022-08-17T04:53:42.094Z,95351.06
2022-08-17T04:58:46.007Z,95349.03
2022-08-17T05:03:47.768Z,95354.13
2022-08-17T05:08:49.698Z,95355.66
2022-08-17T05:13:51.587Z,95361.97
2022-08-17T05:18:53.444Z,95357.47
2022-08-17T05:23:58.518Z,95358.53
2022-08-17T05:29:02.559Z,95357.59
2022-08-17T05:34:04.718Z,95367.75
2022-08-17T05:39:06.636Z,95370.34
2022-08-17T05:44:08.232Z,95368.91
2022-08-17T05:49:19.048Z,95359.84
2022-08-17T05:54:39.596Z,95360.69
2022-08-17T06:00:15.933Z,95353.97
2022-08-17T06:05:50.471Z,95344.47
2022-08-17T06:10:55.125Z,95342.84
2022-08-17T06:16:33.829Z,95353.06
2022-08-17T06:21:37.580Z,95361.31
2022-08-17T06:26:45.487Z,95362.72
2022-08-17T06:31:47.302Z,95365.69
2022-08-17T06:37:25.687Z,95364.00
2022-08-17T06:43:05.792Z,95374.53
2022-08-17T06:48:25.713Z,95377.47
2022-08-17T06:53:35.777Z,95376.09
2022-08-17T06:58:40.429Z,95389.13
2022-08-17T07:04:11.551Z,95394.81
2022-08-17T07:09:31.441Z,95392.16
2022-08-17T07:14:48.927Z,95400.66
2022-08-17T07:20:08.875Z,95402.03
2022-08-17T07:25:18.625Z,95403.72
2022-08-17T07:30:45.661Z,95405.63
2022-08-17T07:35:50.261Z,95412.34
2022-08-17T07:40:58.236Z,95412.72
2022-08-17T07:46:21.443Z,95414.84
2022-08-17T07:51:26.076Z,95419.81
2022-08-17T07:56:37.939Z,95413.03
2022-08-17T08:01:42.002Z,95425.34
2022-08-17T08:06:52.792Z,95444.50
2022-08-17T08:11:54.447Z,95435.91
2022-08-17T08:17:10.213Z,95435.75
2022-08-17T08:22:22.291Z,95429.22
2022-08-17T08:27:45.938Z,95423.41
2022-08-17T08:32:54.155Z,95422.94
2022-08-17T08:38:20.122Z,95426.81
2022-08-17T08:43:36.185Z,95437.53
2022-08-17T08:49:10.143Z,95441.13
2022-08-17T08:54:26.711Z,95443.97
2022-08-17T08:59:57.713Z,95434.81
2022-08-17T09:05:22.050Z,95436.38
2022-08-17T09:10:49.673Z,95422.03
2022-08-17T09:22:12.547Z,95422.28
2022-08-17T09:27:22.655Z,95430.66
2022-08-17T09:32:41.494Z,95412.97
2022-08-17T09:38:23.682Z,95411.91
2022-08-17T09:43:41.273Z,95402.91
2022-08-17T09:49:01.858Z,95399.25
2022-08-17T09:54:21.350Z,95399.13
2022-08-17T09:59:38.385Z,95398.03
2022-08-17T10:05:07.488Z,95387.97
2022-08-17T10:10:25.642Z,95394.19
2022-08-17T10:16:08.129Z,95396.34
2022-08-17T10:21:33.959Z,95393.38
2022-08-17T10:26:40.369Z,95383.31
2022-08-17T10:32:09.214Z,95396.66
2022-08-17T10:37:20.040Z,95395.97
2022-08-17T10:42:34.087Z,95405.00
2022-08-17T10:47:56.080Z,95398.59
2022-08-17T10:52:59.531Z,95393.03
2022-08-17T10:58:21.088Z,95377.28
2022-08-17T11:03:25.292Z,95380.16
2022-08-17T11:08:45.777Z,95379.00
2022-08-17T11:14:17.094Z,95369.59
2022-08-17T11:19:38.998Z,95372.47
2022-08-17T11:24:45.639Z,95358.97
2022-08-17T11:29:59.480Z,95351.81
2022-08-17T11:35:20.001Z,95362.78
2022-08-17T11:40:41.587Z,95373.66
2022-08-17T11:46:13.961Z,95380.41
2022-08-17T11:51:33.865Z,95387.38
2022-08-17T11:56:38.800Z,95385.53
2022-08-17T12:02:01.931Z,95385.53
2022-08-17T12:07:08.807Z,95381.63
2022-08-17T12:12:14.688Z,95378.03
2022-08-17T12:17:40.658Z,95373.69
2022-08-17T12:23:10.265Z,95369.63
2022-08-17T12:28:29.517Z,95360.25
2022-08-17T12:33:31.730Z,95362.06
2022-08-17T12:38:36.529Z,95368.47
2022-08-17T12:43:38.395Z,95369.50
2022-08-17T12:48:40.108Z,95363.03
2022-08-17T12:54:02.294Z,95367.84
2022-08-17T12:59:04.143Z,95356.06
2022-08-17T13:04:06.614Z,95368.63
2022-08-17T13:09:19.865Z,95359.22
2022-08-17T13:14:22.074Z,95359.94
2022-08-17T13:19:29.857Z,95349.06
2022-08-17T13:24:57.543Z,95341.34
2022-08-17T13:30:01.288Z,95343.09
2022-08-17T13:35:29.492Z,95357.28
2022-08-17T13:40:50.179Z,95341.63
2022-08-17T13:45:53.062Z,95335.00
2022-08-17T13:50:54.633Z,95322.13
2022-08-17T13:56:37.370Z,95319.22
2022-08-17T14:01:42.641Z,95313.72
2022-08-17T14:06:52.275Z,95317.75
2022-08-17T14:11:57.575Z,95304.28
2022-08-17T14:16:59.429Z,95309.06
2022-08-17T14:22:01.780Z,95302.81
2022-08-17T14:27:06.874Z,95303.41
2022-08-17T14:32:23.037Z,95297.53
2022-08-17T14:37:28.039Z,95299.25
2022-08-17T14:42:33.022Z,95296.44
2022-08-17T14:47:37.125Z,95286.81
2022-08-17T14:52:43.001Z,95283.59
2022-08-17T14:57:45.647Z,95258.78
2022-08-17T15:02:56.292Z,95256.50
2022-08-17T15:07:59.396Z,95263.06
2022-08-17T15:13:01.191Z,95261.00
2022-08-17T15:18:03.373Z,95248.63
2022-08-17T15:23:07.288Z,95246.31
2022-08-17T15:28:08.985Z,95236.41
2022-08-17T15:33:17.597Z,95235.22
2022-08-17T15:38:19.778Z,95243.16
2022-08-17T15:43:27.854Z,95242.34
2022-08-17T15:48:41.826Z,95255.19
2022-08-17T15:53:46.833Z,95265.34
2022-08-17T15:58:49.306Z,95267.78
2022-08-17T16:04:04.518Z,95274.78
2022-08-17T16:09:08.443Z,95270.88
2022-08-17T16:14:10.342Z,95278.72
2022-08-17T16:19:15.505Z,95275.41
2022-08-17T16:24:17.177Z,95266.41
2022-08-17T16:29:18.794Z,95276.31
2022-08-17T16:34:21.668Z,95268.03
2022-08-17T16:39:29.277Z,95272.03
2022-08-17T16:44:32.611Z,95268.63
2022-08-17T16:49:37.427Z,95267.13
2022-08-17T16:54:43.771Z,95257.66
2022-08-17T16:59:50.424Z,95260.09
2022-08-17T17:05:02.928Z,95265.34
2022-08-17T17:10:12.515Z,95269.28
2022-08-17T17:15:20.078Z,95263.59
2022-08-17T17:20:28.630Z,95261.47
2022-08-17T17:25:57.530Z,95257.28
2022-08-17T17:31:05.251Z,95254.22
2022-08-17T17:36:29.068Z,95243.44
2022-08-17T17:41:41.967Z,95246.81
2022-08-17T17:46:50.678Z,95255.03
2022-08-17T17:52:05.884Z,95248.19
2022-08-17T17:57:17.847Z,95255.63
2022-08-17T18:03:01.180Z,95252.09
2022-08-17T18:08:34.743Z,95244.75
2022-08-17T18:13:53.325Z,95240.44
2022-08-17T18:18:57.978Z,95232.88
2022-08-17T18:24:02.198Z,95227.66
2022-08-17T18:29:22.782Z,95226.94
2022-08-17T18:34:47.677Z,95230.00
2022-08-17T18:39:49.831Z,95235.16
2022-08-17T18:44:55.054Z,95230.50
2022-08-17T18:50:18.515Z,95229.47
2022-08-17T18:55:28.526Z,95228.19
2022-08-17T19:00:38.205Z,95233.81
2022-08-17T19:05:43.393Z,95228.72
2022-08-17T19:10:47.354Z,95235.16
2022-08-17T19:16:11.795Z,95238.47
2022-08-17T19:21:23.034Z,95232.03
2022-08-17T19:26:54.451Z,95233.78
2022-08-17T19:31:58.864Z,95232.69
2022-08-17T19:37:09.822Z,95236.69
2022-08-17T19:42:18.090Z,95227.13
2022-08-17T19:47:54.936Z,95228.47
2022-08-17T19:53:18.790Z,95213.28
2022-08-17T19:58:48.934Z,95225.72
2022-08-17T20:04:20.657Z,95227.09
2022-08-17T20:09:34.970Z,95253.06
2022-08-17T20:14:55.354Z,95257.06
2022-08-17T20:20:20.218Z,95260.47
2022-08-17T20:25:35.392Z,95255.97
2022-08-17T20:30:42.545Z,95256.56
2022-08-17T20:36:02.387Z,95259.25
2022-08-17T20:41:04.044Z,95276.75
2022-08-17T20:46:28.188Z,95275.34
2022-08-17T20:51:34.767Z,95269.78
2022-08-17T20:56:43.274Z,95274.72
2022-08-17T21:02:17.608Z,95278.13
2022-08-17T21:07:42.634Z,95269.50
2022-08-17T21:13:23.046Z,95262.16
2022-08-17T21:18:48.522Z,95259.44
2022-08-17T21:24:20.228Z,95244.66
2022-08-17T21:29:32.465Z,95242.91
2022-08-17T21:34:42.631Z,95229.41
2022-08-17T21:39:49.210Z,95225.59
2022-08-17T21:44:57.980Z,95235.66
2022-08-17T21:50:19.836Z,95223.16
2022-08-17T21:55:29.872Z,95220.41
2022-08-17T22:00:32.908Z,95216.84
2022-08-17T22:05:37.865Z,95224.84
2022-08-17T22:10:44.539Z,95225.41
2022-08-17T22:15:49.695Z,95230.56
2022-08-17T22:20:55.380Z,95227.78
2022-08-17T22:26:09.581Z,95227.56
2022-08-17T22:31:20.704Z,95230.13
2022-08-17T22:36:24.663Z,95235.78
2022-08-17T22:41:39.097Z,95226.59
2022-08-17T22:46:50.824Z,95232.50
2022-08-17T22:52:01.727Z,95225.88
2022-08-17T22:57:23.508Z,95224.13
2022-08-17T23:02:28.720Z,95219.31
2022-08-17T23:07:30.371Z,95219.63
2022-08-17T23:12:33.267Z,95219.84
2022-08-17T23:17:37.425Z,95231.38
2022-08-17T23:22:51.776Z,95237.28
2022-08-17T23:27:55.762Z,95250.84
2022-08-17T23:33:01.527Z,95261.06
2022-08-17T23:38:03.232Z,95255.50
2022-08-17T23:43:24.021Z,95271.34
2022-08-17T23:48:36.290Z,95275.16
2022-08-17T23:53:42.880Z,95277.75
2022-08-17T23:58:44.923Z,95283.13
